sensor_id;sensor_type;location;lat;lon;timestamp;pressure;altitude;pressure_sealevel;temperature;humidity
15050;BME280;7622;42.724;23.250;2023-01-27T00:00:47;93761.53;;;0.14;100.00
15050;BME280;7622;42.724;23.250;2023-01-27T00:03:14;93828.63;;;0.54;100.00
15050;BME280;7622;42.724;23.250;2023-01-27T00:05:42;93824.31;;;0.55;100.00
15050;BME280;7622;42.724;23.250;2023-01-27T00:08:09;93825.25;;;0.28;100.00
15050;BME280;7622;42.724;23.250;2023-01-27T00:10:36;93824.63;;;0.37;100.00
15050;BME280;7622;42.724;23.250;2023-01-27T00:13:04;93825.00;;;0.57;100.00
15050;BME280;7622;42.724;23.250;2023-01-27T00:15:51;93822.78;;;0.52;100.00
15050;BME280;7622;42.724;23.250;2023-01-27T00:18:18;93827.78;;;0.66;100.00
15050;BME280;7622;42.724;23.250;2023-01-27T00:20:45;93815.31;;;0.62;100.00
15050;BME280;7622;42.724;23.250;2023-01-27T00:23:29;93803.91;;;0.78;100.00
15050;BME280;7622;42.724;23.250;2023-01-27T00:26:15;93782.72;;;0.53;100.00
15050;BME280;7622;42.724;23.250;2023-01-27T00:28:45;93795.28;;;0.56;100.00
15050;BME280;7622;42.724;23.250;2023-01-27T00:31:13;93754.91;;;0.24;100.00
15050;BME280;7622;42.724;23.250;2023-01-27T00:33:58;93796.13;;;0.44;100.00
15050;BME280;7622;42.724;23.250;2023-01-27T00:36:27;93793.53;;;0.56;100.00
15050;BME280;7622;42.724;23.250;2023-01-27T00:38:53;93792.81;;;0.67;100.00
15050;BME280;7622;42.724;23.250;2023-01-27T00:41:20;93802.66;;;0.60;100.00
15050;BME280;7622;42.724;23.250;2023-01-27T00:43:51;93796.72;;;0.60;100.00
15050;BME280;7622;42.724;23.250;2023-01-27T00:46:19;93790.88;;;0.58;100.00
15050;BME280;7622;42.724;23.250;2023-01-27T00:48:46;93787.72;;;0.67;100.00
15050;BME280;7622;42.724;23.250;2023-01-27T00:51:13;93800.00;;;0.62;100.00
15050;BME280;7622;42.724;23.250;2023-01-27T00:53:41;93810.28;;;0.73;100.00
15050;BME280;7622;42.724;23.250;2023-01-27T00:56:09;93806.75;;;0.87;100.00
15050;BME280;7622;42.724;23.250;2023-01-27T00:58:36;93795.88;;;0.72;100.00
15050;BME280;7622;42.724;23.250;2023-01-27T01:01:06;93796.97;;;0.81;100.00
15050;BME280;7622;42.724;23.250;2023-01-27T01:03:34;93761.28;;;0.43;100.00
15050;BME280;7622;42.724;23.250;2023-01-27T01:06:04;93790.03;;;0.70;100.00
15050;BME280;7622;42.724;23.250;2023-01-27T01:08:32;93795.81;;;0.61;100.00
15050;BME280;7622;42.724;23.250;2023-01-27T01:10:59;93781.72;;;0.55;100.00
15050;BME280;7622;42.724;23.250;2023-01-27T01:13:26;93783.97;;;0.47;100.00
15050;BME280;7622;42.724;23.250;2023-01-27T01:15:54;93795.41;;;0.54;100.00
15050;BME280;7622;42.724;23.250;2023-01-27T01:18:23;93800.31;;;0.45;100.00
15050;BME280;7622;42.724;23.250;2023-01-27T01:20:50;93798.91;;;0.41;100.00
15050;BME280;7622;42.724;23.250;2023-01-27T01:23:16;93809.13;;;0.41;100.00
15050;BME280;7622;42.724;23.250;2023-01-27T01:25:51;93807.06;;;0.46;100.00
15050;BME280;7622;42.724;23.250;2023-01-27T01:28:18;93797.56;;;0.48;100.00
15050;BME280;7622;42.724;23.250;2023-01-27T01:30:44;93803.59;;;0.47;100.00
15050;BME280;7622;42.724;23.250;2023-01-27T01:33:11;93797.69;;;0.70;100.00
15050;BME280;7622;42.724;23.250;2023-01-27T01:35:40;93769.03;;;0.54;100.00
15050;BME280;7622;42.724;23.250;2023-01-27T01:38:06;93768.66;;;0.47;100.00
15050;BME280;7622;42.724;23.250;2023-01-27T01:40:38;93800.59;;;0.65;100.00
15050;BME280;7622;42.724;23.250;2023-01-27T01:43:11;93799.03;;;0.63;100.00
15050;BME280;7622;42.724;23.250;2023-01-27T01:45:45;93814.22;;;0.53;100.00
15050;BME280;7622;42.724;23.250;2023-01-27T01:48:17;93809.06;;;0.66;100.00
15050;BME280;7622;42.724;23.250;2023-01-27T01:50:51;93806.63;;;0.52;100.00
15050;BME280;7622;42.724;23.250;2023-01-27T01:53:19;93814.59;;;0.60;100.00
15050;BME280;7622;42.724;23.250;2023-01-27T01:55:52;93798.22;;;0.75;100.00
15050;BME280;7622;42.724;23.250;2023-01-27T01:58:18;93796.72;;;0.60;100.00
15050;BME280;7622;42.724;23.250;2023-01-27T02:00:46;93789.13;;;0.71;100.00
15050;BME280;7622;42.724;23.250;2023-01-27T02:03:12;93782.28;;;0.71;100.00
15050;BME280;7622;42.724;23.250;2023-01-27T02:05:42;93789.53;;;0.65;100.00
15050;BME280;7622;42.724;23.250;2023-01-27T02:08:15;93776.06;;;0.63;100.00
15050;BME280;7622;42.724;23.250;2023-01-27T02:10:43;93767.47;;;0.64;100.00
15050;BME280;7622;42.724;23.250;2023-01-27T02:13:10;93769.59;;;0.70;100.00
15050;BME280;7622;42.724;23.250;2023-01-27T02:15:37;93756.34;;;0.65;100.00
15050;BME280;7622;42.724;23.250;2023-01-27T02:18:05;93755.22;;;0.69;100.00
15050;BME280;7622;42.724;23.250;2023-01-27T02:20:36;93752.00;;;0.78;100.00
15050;BME280;7622;42.724;23.250;2023-01-27T02:23:14;93744.03;;;0.46;100.00
15050;BME280;7622;42.724;23.250;2023-01-27T02:25:50;93741.81;;;0.65;100.00
15050;BME280;7622;42.724;23.250;2023-01-27T02:28:18;93718.09;;;0.39;100.00
15050;BME280;7622;42.724;23.250;2023-01-27T02:30:45;93727.03;;;0.58;100.00
15050;BME280;7622;42.724;23.250;2023-01-27T02:33:12;93729.16;;;0.64;100.00
15050;BME280;7622;42.724;23.250;2023-01-27T02:35:43;93730.69;;;0.66;100.00
15050;BME280;7622;42.724;23.250;2023-01-27T02:38:12;93737.97;;;0.60;100.00
15050;BME280;7622;42.724;23.250;2023-01-27T02:40:40;93743.88;;;0.60;100.00
15050;BME280;7622;42.724;23.250;2023-01-27T02:43:09;93734.63;;;0.70;100.00
15050;BME280;7622;42.724;23.250;2023-01-27T02:45:36;93738.53;;;0.76;100.00
15050;BME280;7622;42.724;23.250;2023-01-27T02:48:03;93741.00;;;0.65;100.00
15050;BME280;7622;42.724;23.250;2023-01-27T02:50:30;93742.44;;;0.69;100.00
15050;BME280;7622;42.724;23.250;2023-01-27T02:52:57;93742.19;;;0.72;100.00
15050;BME280;7622;42.724;23.250;2023-01-27T02:55:23;93746.72;;;0.68;100.00
15050;BME280;7622;42.724;23.250;2023-01-27T02:57:50;93747.03;;;0.64;100.00
15050;BME280;7622;42.724;23.250;2023-01-27T03:00:20;93743.69;;;0.51;100.00
15050;BME280;7622;42.724;23.250;2023-01-27T03:02:50;93740.03;;;0.55;100.00
15050;BME280;7622;42.724;23.250;2023-01-27T03:05:18;93742.97;;;0.61;100.00
15050;BME280;7622;42.724;23.250;2023-01-27T03:07:45;93735.44;;;0.47;100.00
15050;BME280;7622;42.724;23.250;2023-01-27T03:10:12;93736.28;;;0.48;100.00
15050;BME280;7622;42.724;23.250;2023-01-27T03:12:39;93732.91;;;0.47;100.00
15050;BME280;7622;42.724;23.250;2023-01-27T03:15:07;93736.38;;;0.46;100.00
15050;BME280;7622;42.724;23.250;2023-01-27T03:17:52;93730.47;;;0.33;100.00
15050;BME280;7622;42.724;23.250;2023-01-27T03:20:43;93727.41;;;0.41;100.00
15050;BME280;7622;42.724;23.250;2023-01-27T03:23:11;93717.81;;;0.31;100.00
15050;BME280;7622;42.724;23.250;2023-01-27T03:25:42;93714.41;;;0.44;100.00
15050;BME280;7622;42.724;23.250;2023-01-27T03:28:09;93704.47;;;0.52;100.00
15050;BME280;7622;42.724;23.250;2023-01-27T03:30:36;93705.72;;;0.46;100.00
15050;BME280;7622;42.724;23.250;2023-01-27T03:33:05;93708.72;;;0.64;100.00
15050;BME280;7622;42.724;23.250;2023-01-27T03:35:33;93706.22;;;0.75;100.00
15050;BME280;7622;42.724;23.250;2023-01-27T03:38:05;93700.13;;;0.65;100.00
15050;BME280;7622;42.724;23.250;2023-01-27T03:40:50;93687.44;;;0.63;100.00
15050;BME280;7622;42.724;23.250;2023-01-27T03:43:34;93686.31;;;0.91;100.00
15050;BME280;7622;42.724;23.250;2023-01-27T03:46:19;93684.34;;;0.71;100.00
15050;BME280;7622;42.724;23.250;2023-01-27T03:48:52;93670.22;;;0.78;100.00
15050;BME280;7622;42.724;23.250;2023-01-27T03:51:20;93671.66;;;0.82;100.00
15050;BME280;7622;42.724;23.250;2023-01-27T03:53:48;93673.06;;;0.86;100.00
15050;BME280;7622;42.724;23.250;2023-01-27T03:56:16;93667.47;;;0.81;100.00
15050;BME280;7622;42.724;23.250;2023-01-27T03:58:44;93668.59;;;0.77;100.00
15050;BME280;7622;42.724;23.250;2023-01-27T04:01:13;93665.19;;;0.65;100.00
15050;BME280;7622;42.724;23.250;2023-01-27T04:03:41;93676.59;;;0.72;100.00
15050;BME280;7622;42.724;23.250;2023-01-27T04:06:28;93670.28;;;0.65;100.00
15050;BME280;7622;42.724;23.250;2023-01-27T04:09:17;93682.78;;;0.57;100.00
15050;BME280;7622;42.724;23.250;2023-01-27T04:11:44;93695.19;;;0.74;100.00
15050;BME280;7622;42.724;23.250;2023-01-27T04:14:21;93690.66;;;0.78;100.00
15050;BME280;7622;42.724;23.250;2023-01-27T04:16:49;93713.38;;;0.70;100.00
15050;BME280;7622;42.724;23.250;2023-01-27T04:19:16;93728.06;;;0.79;100.00
15050;BME280;7622;42.724;23.250;2023-01-27T04:21:45;93736.31;;;0.59;100.00
15050;BME280;7622;42.724;23.250;2023-01-27T04:24:13;93743.06;;;0.60;100.00
15050;BME280;7622;42.724;23.250;2023-01-27T04:26:47;93739.38;;;0.64;100.00
15050;BME280;7622;42.724;23.250;2023-01-27T04:29:15;93731.16;;;0.71;100.00
15050;BME280;7622;42.724;23.250;2023-01-27T04:31:42;93751.59;;;0.71;100.00
15050;BME280;7622;42.724;23.250;2023-01-27T04:34:10;93740.22;;;0.52;100.00
15050;BME280;7622;42.724;23.250;2023-01-27T04:36:37;93768.25;;;0.77;100.00
15050;BME280;7622;42.724;23.250;2023-01-27T04:39:06;93763.78;;;0.68;100.00
15050;BME280;7622;42.724;23.250;2023-01-27T04:41:33;93770.78;;;0.90;100.00
15050;BME280;7622;42.724;23.250;2023-01-27T04:44:00;93755.03;;;0.83;100.00
15050;BME280;7622;42.724;23.250;2023-01-27T04:46:27;93717.38;;;0.37;100.00
15050;BME280;7622;42.724;23.250;2023-01-27T04:48:54;93778.84;;;0.60;100.00
15050;BME280;7622;42.724;23.250;2023-01-27T04:51:21;93777.63;;;0.53;100.00
15050;BME280;7622;42.724;23.250;2023-01-27T04:53:48;93760.72;;;0.63;100.00
15050;BME280;7622;42.724;23.250;2023-01-27T04:56:21;93762.16;;;0.67;100.00
15050;BME280;7622;42.724;23.250;2023-01-27T04:58:50;93764.47;;;0.70;100.00
15050;BME280;7622;42.724;23.250;2023-01-27T05:01:18;93786.00;;;0.55;100.00
15050;BME280;7622;42.724;23.250;2023-01-27T05:03:45;93741.00;;;0.28;100.00
15050;BME280;7622;42.724;23.250;2023-01-27T05:06:12;93757.22;;;0.40;100.00
15050;BME280;7622;42.724;23.250;2023-01-27T05:08:40;93762.88;;;0.69;100.00
15050;BME280;7622;42.724;23.250;2023-01-27T05:11:06;93764.53;;;0.57;100.00
15050;BME280;7622;42.724;23.250;2023-01-27T05:13:35;93762.28;;;0.53;100.00
15050;BME280;7622;42.724;23.250;2023-01-27T05:16:11;93773.25;;;0.42;100.00
15050;BME280;7622;42.724;23.250;2023-01-27T05:18:38;93771.59;;;0.54;100.00
15050;BME280;7622;42.724;23.250;2023-01-27T05:21:06;93764.38;;;0.48;100.00
15050;BME280;7622;42.724;23.250;2023-01-27T05:23:33;93763.50;;;0.60;100.00
15050;BME280;7622;42.724;23.250;2023-01-27T05:26:08;93764.63;;;0.19;100.00
15050;BME280;7622;42.724;23.250;2023-01-27T05:28:39;93758.25;;;0.37;100.00
15050;BME280;7622;42.724;23.250;2023-01-27T05:31:08;93758.63;;;0.44;100.00
15050;BME280;7622;42.724;23.250;2023-01-27T05:33:34;93763.66;;;0.46;100.00
15050;BME280;7622;42.724;23.250;2023-01-27T05:36:03;93750.88;;;0.46;100.00
15050;BME280;7622;42.724;23.250;2023-01-27T05:38:30;93740.63;;;0.58;100.00
15050;BME280;7622;42.724;23.250;2023-01-27T05:40:59;93735.94;;;0.52;100.00
15050;BME280;7622;42.724;23.250;2023-01-27T05:43:27;93735.75;;;0.43;100.00
15050;BME280;7622;42.724;23.250;2023-01-27T05:46:03;93691.31;;;0.09;100.00
15050;BME280;7622;42.724;23.250;2023-01-27T05:48:30;93738.25;;;0.31;100.00
15050;BME280;7622;42.724;23.250;2023-01-27T05:50:58;93733.09;;;0.44;100.00
15050;BME280;7622;42.724;23.250;2023-01-27T05:53:25;93734.97;;;0.29;100.00
15050;BME280;7622;42.724;23.250;2023-01-27T05:55:52;93738.38;;;0.17;100.00
15050;BME280;7622;42.724;23.250;2023-01-27T05:58:20;93705.91;;;-0.06;100.00
15050;BME280;7622;42.724;23.250;2023-01-27T06:00:47;93734.91;;;0.18;100.00
15050;BME280;7622;42.724;23.250;2023-01-27T06:03:15;93750.09;;;0.32;100.00
15050;BME280;7622;42.724;23.250;2023-01-27T06:05:52;93753.97;;;0.25;100.00
15050;BME280;7622;42.724;23.250;2023-01-27T06:08:20;93759.59;;;0.30;100.00
15050;BME280;7622;42.724;23.250;2023-01-27T06:10:47;93758.16;;;0.26;100.00
15050;BME280;7622;42.724;23.250;2023-01-27T06:13:13;93753.63;;;0.43;100.00
15050;BME280;7622;42.724;23.250;2023-01-27T06:15:41;93747.31;;;0.35;100.00
15050;BME280;7622;42.724;23.250;2023-01-27T06:18:09;93754.53;;;0.42;100.00
15050;BME280;7622;42.724;23.250;2023-01-27T06:20:38;93758.28;;;0.25;100.00
15050;BME280;7622;42.724;23.250;2023-01-27T06:23:05;93759.06;;;0.38;100.00
15050;BME280;7622;42.724;23.250;2023-01-27T06:25:35;93731.72;;;0.27;100.00
15050;BME280;7622;42.724;23.250;2023-01-27T06:28:02;93743.94;;;0.35;100.00
15050;BME280;7622;42.724;23.250;2023-01-27T06:30:28;93765.72;;;0.41;100.00
15050;BME280;7622;42.724;23.250;2023-01-27T06:32:55;93763.53;;;0.47;100.00
15050;BME280;7622;42.724;23.250;2023-01-27T06:35:22;93762.34;;;0.40;100.00
15050;BME280;7622;42.724;23.250;2023-01-27T06:37:50;93768.00;;;0.56;100.00
15050;BME280;7622;42.724;23.250;2023-01-27T06:40:17;93762.06;;;0.56;100.00
15050;BME280;7622;42.724;23.250;2023-01-27T06:42:44;93761.66;;;0.62;100.00
15050;BME280;7622;42.724;23.250;2023-01-27T06:45:11;93756.34;;;0.65;100.00
15050;BME280;7622;42.724;23.250;2023-01-27T06:47:38;93771.56;;;0.66;100.00
15050;BME280;7622;42.724;23.250;2023-01-27T06:50:06;93776.97;;;0.74;100.00
15050;BME280;7622;42.724;23.250;2023-01-27T06:52:33;93769.09;;;0.65;100.00
15050;BME280;7622;42.724;23.250;2023-01-27T06:55:02;93760.13;;;0.83;100.00
15050;BME280;7622;42.724;23.250;2023-01-27T06:57:29;93745.53;;;0.85;100.00
15050;BME280;7622;42.724;23.250;2023-01-27T06:59:55;93775.16;;;1.11;100.00
15050;BME280;7622;42.724;23.250;2023-01-27T07:02:22;93777.25;;;1.06;100.00
15050;BME280;7622;42.724;23.250;2023-01-27T07:04:49;93776.03;;;0.99;100.00
15050;BME280;7622;42.724;23.250;2023-01-27T07:07:16;93771.75;;;1.24;100.00
15050;BME280;7622;42.724;23.250;2023-01-27T07:09:42;93784.16;;;1.17;100.00
15050;BME280;7622;42.724;23.250;2023-01-27T07:12:10;93785.75;;;1.18;100.00
15050;BME280;7622;42.724;23.250;2023-01-27T07:14:37;93788.84;;;1.23;100.00
15050;BME280;7622;42.724;23.250;2023-01-27T07:17:04;93774.06;;;1.27;100.00
15050;BME280;7622;42.724;23.250;2023-01-27T07:19:31;93782.81;;;1.24;100.00
15050;BME280;7622;42.724;23.250;2023-01-27T07:21:57;93781.81;;;1.38;100.00
15050;BME280;7622;42.724;23.250;2023-01-27T07:24:25;93777.41;;;1.16;100.00
15050;BME280;7622;42.724;23.250;2023-01-27T07:26:52;93779.00;;;1.41;100.00
15050;BME280;7622;42.724;23.250;2023-01-27T07:29:20;93782.47;;;1.29;100.00
15050;BME280;7622;42.724;23.250;2023-01-27T07:31:47;93776.56;;;1.39;100.00
15050;BME280;7622;42.724;23.250;2023-01-27T07:34:13;93780.44;;;1.45;100.00
15050;BME280;7622;42.724;23.250;2023-01-27T07:36:40;93634.16;;;0.59;100.00
15050;BME280;7622;42.724;23.250;2023-01-27T07:39:07;93777.66;;;1.48;100.00
15050;BME280;7622;42.724;23.250;2023-01-27T07:41:34;93779.63;;;1.44;100.00
15050;BME280;7622;42.724;23.250;2023-01-27T07:44:00;93776.34;;;1.42;100.00
15050;BME280;7622;42.724;23.250;2023-01-27T07:46:29;93780.69;;;1.53;100.00
15050;BME280;7622;42.724;23.250;2023-01-27T07:48:56;93793.41;;;1.31;100.00
15050;BME280;7622;42.724;23.250;2023-01-27T07:51:22;93783.84;;;1.33;100.00
15050;BME280;7622;42.724;23.250;2023-01-27T07:53:49;93774.16;;;1.49;100.00
15050;BME280;7622;42.724;23.250;2023-01-27T07:56:16;93775.69;;;1.51;100.00
15050;BME280;7622;42.724;23.250;2023-01-27T07:58:43;93782.75;;;1.48;100.00
15050;BME280;7622;42.724;23.250;2023-01-27T08:01:10;93768.03;;;1.51;100.00
15050;BME280;7622;42.724;23.250;2023-01-27T08:03:39;93786.50;;;1.55;100.00
15050;BME280;7622;42.724;23.250;2023-01-27T08:06:07;93790.34;;;1.61;100.00
15050;BME280;7622;42.724;23.250;2023-01-27T08:08:35;93780.47;;;1.56;100.00
15050;BME280;7622;42.724;23.250;2023-01-27T08:11:04;93779.06;;;1.52;100.00
15050;BME280;7622;42.724;23.250;2023-01-27T08:13:33;93773.94;;;1.52;100.00
15050;BME280;7622;42.724;23.250;2023-01-27T08:16:01;93777.19;;;1.54;100.00
15050;BME280;7622;42.724;23.250;2023-01-27T08:18:29;93779.44;;;1.58;100.00
15050;BME280;7622;42.724;23.250;2023-01-27T08:21:00;93781.53;;;1.65;100.00
15050;BME280;7622;42.724;23.250;2023-01-27T08:23:27;93742.66;;;1.48;100.00
15050;BME280;7622;42.724;23.250;2023-01-27T08:25:56;93751.78;;;1.29;100.00
15050;BME280;7622;42.724;23.250;2023-01-27T08:28:24;93777.34;;;1.64;100.00
15050;BME280;7622;42.724;23.250;2023-01-27T08:30:52;93786.47;;;1.44;100.00
15050;BME280;7622;42.724;23.250;2023-01-27T08:33:19;93757.22;;;1.00;100.00
15050;BME280;7622;42.724;23.250;2023-01-27T08:35:47;93793.41;;;1.31;100.00
15050;BME280;7622;42.724;23.250;2023-01-27T08:38:17;93794.31;;;1.30;100.00
15050;BME280;7622;42.724;23.250;2023-01-27T08:40:45;93797.63;;;1.19;100.00
15050;BME280;7622;42.724;23.250;2023-01-27T08:43:13;93811.25;;;1.19;100.00
15050;BME280;7622;42.724;23.250;2023-01-27T08:45:41;93797.94;;;1.03;100.00
15050;BME280;7622;42.724;23.250;2023-01-27T08:48:09;93803.63;;;1.07;100.00
15050;BME280;7622;42.724;23.250;2023-01-27T08:50:36;93803.53;;;1.08;100.00
15050;BME280;7622;42.724;23.250;2023-01-27T08:53:03;93807.34;;;1.03;100.00
15050;BME280;7622;42.724;23.250;2023-01-27T08:55:32;93791.75;;;1.06;100.00
15050;BME280;7622;42.724;23.250;2023-01-27T08:57:59;93787.69;;;1.03;100.00
15050;BME280;7622;42.724;23.250;2023-01-27T09:00:25;93797.94;;;1.03;100.00
15050;BME280;7622;42.724;23.250;2023-01-27T09:02:52;93803.56;;;1.19;100.00
15050;BME280;7622;42.724;23.250;2023-01-27T09:05:19;93807.22;;;1.28;100.00
15050;BME280;7622;42.724;23.250;2023-01-27T09:07:47;93778.59;;;1.23;100.00
15050;BME280;7622;42.724;23.250;2023-01-27T09:10:15;93797.91;;;1.27;100.00
15050;BME280;7622;42.724;23.250;2023-01-27T09:12:44;93795.22;;;1.17;100.00
15050;BME280;7622;42.724;23.250;2023-01-27T09:15:12;93790.25;;;1.27;100.00
15050;BME280;7622;42.724;23.250;2023-01-27T09:17:39;93792.03;;;1.14;100.00
15050;BME280;7622;42.724;23.250;2023-01-27T09:20:07;93785.66;;;1.19;100.00
15050;BME280;7622;42.724;23.250;2023-01-27T09:22:34;93791.69;;;1.18;100.00
15050;BME280;7622;42.724;23.250;2023-01-27T09:25:02;93773.16;;;1.04;100.00
15050;BME280;7622;42.724;23.250;2023-01-27T09:27:29;93799.66;;;1.27;100.00
15050;BME280;7622;42.724;23.250;2023-01-27T09:29:57;93794.31;;;1.30;100.00
15050;BME280;7622;42.724;23.250;2023-01-27T09:32:24;93779.25;;;1.14;100.00
15050;BME280;7622;42.724;23.250;2023-01-27T09:34:50;93783.09;;;1.19;100.00
15050;BME280;7622;42.724;23.250;2023-01-27T09:37:17;93765.91;;;1.22;100.00
15050;BME280;7622;42.724;23.250;2023-01-27T09:39:47;93768.97;;;1.27;100.00
15050;BME280;7622;42.724;23.250;2023-01-27T09:42:31;93753.34;;;1.18;100.00
15050;BME280;7622;42.724;23.250;2023-01-27T09:45:30;93759.78;;;1.24;100.00
15050;BME280;7622;42.724;23.250;2023-01-27T09:48:11;93769.00;;;0.90;100.00
15050;BME280;7622;42.724;23.250;2023-01-27T09:50:44;93763.53;;;1.07;100.00
15050;BME280;7622;42.724;23.250;2023-01-27T09:53:39;93767.63;;;1.10;100.00
15050;BME280;7622;42.724;23.250;2023-01-27T09:56:14;93750.84;;;1.06;100.00
15050;BME280;7622;42.724;23.250;2023-01-27T09:59:00;93756.59;;;1.09;100.00
15050;BME280;7622;42.724;23.250;2023-01-27T10:01:39;93751.28;;;1.00;100.00
15050;BME280;7622;42.724;23.250;2023-01-27T10:04:31;93745.81;;;0.93;100.00
15050;BME280;7622;42.724;23.250;2023-01-27T10:07:29;93746.34;;;0.86;100.00
15050;BME280;7622;42.724;23.250;2023-01-27T10:10:21;93739.53;;;0.97;100.00
15050;BME280;7622;42.724;23.250;2023-01-27T10:16:04;93713.66;;;0.78;100.00
15050;BME280;7622;42.724;23.250;2023-01-27T10:18:59;93721.22;;;1.03;100.00
15050;BME280;7622;42.724;23.250;2023-01-27T10:21:30;93721.00;;;1.06;100.00
15050;BME280;7622;42.724;23.250;2023-01-27T10:24:08;93724.25;;;1.08;100.00
15050;BME280;7622;42.724;23.250;2023-01-27T10:26:40;93735.13;;;0.99;100.00
15050;BME280;7622;42.724;23.250;2023-01-27T10:29:09;93737.22;;;0.94;100.00
15050;BME280;7622;42.724;23.250;2023-01-27T10:31:43;93729.06;;;0.89;100.00
15050;BME280;7622;42.724;23.250;2023-01-27T10:34:26;93726.81;;;1.08;100.00
15050;BME280;7622;42.724;23.250;2023-01-27T10:36:59;93726.44;;;0.78;100.00
15050;BME280;7622;42.724;23.250;2023-01-27T10:39:34;93705.50;;;0.73;100.00
15050;BME280;7622;42.724;23.250;2023-01-27T10:42:09;93723.56;;;1.06;100.00
15050;BME280;7622;42.724;23.250;2023-01-27T10:44:49;93721.81;;;1.07;100.00
15050;BME280;7622;42.724;23.250;2023-01-27T10:47:27;93725.41;;;1.04;100.00
15050;BME280;7622;42.724;23.250;2023-01-27T10:50:02;93729.66;;;0.93;100.00
15050;BME280;7622;42.724;23.250;2023-01-27T10:52:34;93723.28;;;0.98;100.00
15050;BME280;7622;42.724;23.250;2023-01-27T10:55:05;93713.97;;;0.97;100.00
15050;BME280;7622;42.724;23.250;2023-01-27T10:57:37;93719.25;;;1.07;100.00
15050;BME280;7622;42.724;23.250;2023-01-27T11:00:11;93640.88;;;0.60;100.00
15050;BME280;7622;42.724;23.250;2023-01-27T11:02:45;93719.34;;;1.05;100.00
15050;BME280;7622;42.724;23.250;2023-01-27T11:05:19;93719.59;;;1.02;100.00
15050;BME280;7622;42.724;23.250;2023-01-27T11:07:51;93722.19;;;1.13;100.00
15050;BME280;7622;42.724;23.250;2023-01-27T11:10:24;93721.25;;;1.38;100.00
15050;BME280;7622;42.724;23.250;2023-01-27T11:12:55;93724.78;;;1.25;100.00
15050;BME280;7622;42.724;23.250;2023-01-27T11:15:25;93726.03;;;1.19;100.00
15050;BME280;7622;42.724;23.250;2023-01-27T11:17:58;93719.47;;;1.04;100.00
15050;BME280;7622;42.724;23.250;2023-01-27T11:20:30;93719.19;;;1.19;100.00
15050;BME280;7622;42.724;23.250;2023-01-27T11:23:04;93711.97;;;1.13;100.00
15050;BME280;7622;42.724;23.250;2023-01-27T11:25:44;93709.22;;;1.28;100.00
15050;BME280;7622;42.724;23.250;2023-01-27T11:28:20;93709.06;;;1.18;100.00
15050;BME280;7622;42.724;23.250;2023-01-27T11:30:56;93708.19;;;1.30;100.00
15050;BME280;7622;42.724;23.250;2023-01-27T11:33:32;93705.28;;;1.35;100.00
15050;BME280;7622;42.724;23.250;2023-01-27T11:36:08;93618.63;;;0.62;100.00
15050;BME280;7622;42.724;23.250;2023-01-27T11:38:35;93697.81;;;1.21;100.00
15050;BME280;7622;42.724;23.250;2023-01-27T11:41:02;93697.81;;;1.21;100.00
15050;BME280;7622;42.724;23.250;2023-01-27T11:43:28;93694.31;;;1.22;100.00
15050;BME280;7622;42.724;23.250;2023-01-27T11:46:00;93701.00;;;1.11;100.00
15050;BME280;7622;42.724;23.250;2023-01-27T11:48:32;93702.09;;;1.20;100.00
15050;BME280;7622;42.724;23.250;2023-01-27T11:51:03;93698.97;;;1.28;100.00
15050;BME280;7622;42.724;23.250;2023-01-27T11:53:35;93701.56;;;1.39;100.00
15050;BME280;7622;42.724;23.250;2023-01-27T11:56:07;93698.78;;;1.31;100.00
15050;BME280;7622;42.724;23.250;2023-01-27T11:58:38;93693.97;;;1.26;100.00
15050;BME280;7622;42.724;23.250;2023-01-27T12:01:12;93671.94;;;1.01;100.00
15050;BME280;7622;42.724;23.250;2023-01-27T12:03:48;93685.19;;;1.06;100.00
15050;BME280;7622;42.724;23.250;2023-01-27T12:06:30;93695.34;;;1.19;100.00
15050;BME280;7622;42.724;23.250;2023-01-27T12:08:59;93690.75;;;1.00;100.00
15050;BME280;7622;42.724;23.250;2023-01-27T12:11:27;93697.22;;;1.17;100.00
15050;BME280;7622;42.724;23.250;2023-01-27T12:13:57;93689.06;;;1.12;100.00
15050;BME280;7622;42.724;23.250;2023-01-27T12:16:27;93685.00;;;1.09;100.00
15050;BME280;7622;42.724;23.250;2023-01-27T12:19:01;93692.22;;;1.15;100.00
15050;BME280;7622;42.724;23.250;2023-01-27T12:21:41;93693.13;;;1.14;100.00
15050;BME280;7622;42.724;23.250;2023-01-27T12:24:22;93688.75;;;1.16;100.00
15050;BME280;7622;42.724;23.250;2023-01-27T12:26:51;93696.06;;;1.21;100.00
15050;BME280;7622;42.724;23.250;2023-01-27T12:29:21;93696.16;;;1.19;100.00
15050;BME280;7622;42.724;23.250;2023-01-27T12:31:53;93691.28;;;1.16;100.00
15050;BME280;7622;42.724;23.250;2023-01-27T12:34:26;93694.78;;;1.15;100.00
15050;BME280;7622;42.724;23.250;2023-01-27T12:36:54;93693.41;;;1.23;100.00
15050;BME280;7622;42.724;23.250;2023-01-27T12:39:48;93697.59;;;1.24;100.00
15050;BME280;7622;42.724;23.250;2023-01-27T12:42:35;93688.75;;;1.28;100.00
15050;BME280;7622;42.724;23.250;2023-01-27T12:45:26;93683.78;;;1.37;100.00
15050;BME280;7622;42.724;23.250;2023-01-27T12:48:00;93665.47;;;1.19;100.00
15050;BME280;7622;42.724;23.250;2023-01-27T12:50:30;93689.47;;;1.41;100.00
15050;BME280;7622;42.724;23.250;2023-01-27T12:53:05;93697.50;;;1.36;100.00
15050;BME280;7622;42.724;23.250;2023-01-27T12:55:34;93683.91;;;1.36;100.00
15050;BME280;7622;42.724;23.250;2023-01-27T12:58:02;93690.78;;;1.46;100.00
15050;BME280;7622;42.724;23.250;2023-01-27T13:00:29;93689.75;;;1.60;100.00
15050;BME280;7622;42.724;23.250;2023-01-27T13:03:04;93682.28;;;1.46;100.00
15050;BME280;7622;42.724;23.250;2023-01-27T13:05:38;93693.41;;;1.34;100.00
15050;BME280;7622;42.724;23.250;2023-01-27T13:08:13;93682.25;;;1.24;100.00
15050;BME280;7622;42.724;23.250;2023-01-27T13:10:50;93678.59;;;1.50;100.00
15050;BME280;7622;42.724;23.250;2023-01-27T13:13:20;93660.63;;;1.39;100.00
15050;BME280;7622;42.724;23.250;2023-01-27T13:15:54;93680.06;;;1.52;100.00
15050;BME280;7622;42.724;23.250;2023-01-27T13:18:22;93673.22;;;1.53;100.00
15050;BME280;7622;42.724;23.250;2023-01-27T13:20:52;93685.34;;;1.62;100.00